ADDS METAR Data INFO
IDs: Format: Raw Decoded Include TAF

Data at: 2259 UTC 21 Nov 2017

METAR for:KRZT (Chillicothe/Ross Cnt, OH, US)
Text:KRZT 212255Z AUTO 24004KT 10SM CLR 10/M01 A2994 RMK AO2
Temperature: 10.0°C ( 50°F)
Dewpoint: -1.0°C ( 30°F) [RH = 46%]
Pressure (altimeter):29.94 inches Hg (1014.0 mb)
Winds:from the WSW (240 degrees) at 5 MPH (4 knots; 2.1 m/s)
Visibility:10 or more sm (16+ km)
Ceiling:at least 12,000 feet AGL
Clouds:sky clear below 12,000 feet AGL
QC Flag:automated observation with no human augmentation